map of DGT home
DGT - Airport
Location
City:  Dumaguete, Philippines
ICAO:RPVD
IATA:DGT

Details
Type:Airport (Aerodrome, Airfield)
Latitude:9°20'01"N (9.333714)
Longitude:123°18'02"E (123.300472)
Datum:WGS 1984
Elevation:15 ft (5 m)
Variation:1.29°W (WMM2015v2 magnetic declination)
-0.08° annual change
Runways:1
Longest:6136 × 118 ft (1870 × 36 m), paved

Time
Time Zone:UTC+8
Local Time:

Weather
METAR:RPVD 041200Z 07004KT 9999 FEW015 SCT070 27/25 Q1013 RMK A2991

Related Locations
Nearby:
Farthest:SNFJ: 12443 mi / 20025 km
Jacareacanga [Pousada Thaimaçu], PA, BR

Find:

   beyond  
but within

Other Information
Maps:
NOTAMs:
Links:
Sources:

  
  • flag of Philippines
  

Sectional Chart

Flight Planning
at skyvector.com

Satellite Image

Google Maps Satellite view

 

Copyright © 2004-2019 Karl L. Swartz. All rights reserved.
The Great Circle Mapper name and logo are trademarks of the Great Circle Mapper.
All other trademarks mentioned herein belong to their respective owners.
Please see credits for attibutions and further copyright information.

  Follow gcmap on Facebook Follow gcmap on Twitter GCmap on LinkedIn

hCard Microformat

Geo Microformat